sensor_id;sensor_type;location;lat;lon;timestamp;temperature;humidity
3344;DHT22;1685;53.104;8.228;2023-04-01T00:10:38;9.80;99.90
3344;DHT22;1685;53.104;8.228;2023-04-01T00:25:22;9.80;99.90
3344;DHT22;1685;53.104;8.228;2023-04-01T00:27:50;9.80;99.90
3344;DHT22;1685;53.104;8.228;2023-04-01T01:00:05;9.80;99.90
3344;DHT22;1685;53.104;8.228;2023-04-01T01:05:02;9.80;99.90
3344;DHT22;1685;53.104;8.228;2023-04-01T01:07:35;9.80;99.90
3344;DHT22;1685;53.104;8.228;2023-04-01T01:10:09;9.80;99.90
3344;DHT22;1685;53.104;8.228;2023-04-01T01:15:12;9.80;99.90
3344;DHT22;1685;53.104;8.228;2023-04-01T01:17:48;9.80;99.90
3344;DHT22;1685;53.104;8.228;2023-04-01T01:23:23;9.80;99.90
3344;DHT22;1685;53.104;8.228;2023-04-01T01:26:09;9.80;99.90
3344;DHT22;1685;53.104;8.228;2023-04-01T01:28:47;9.80;99.90
3344;DHT22;1685;53.104;8.228;2023-04-01T01:31:21;9.80;99.90
3344;DHT22;1685;53.104;8.228;2023-04-01T01:33:57;9.80;99.90
3344;DHT22;1685;53.104;8.228;2023-04-01T01:36:31;9.80;99.90
3344;DHT22;1685;53.104;8.228;2023-04-01T01:39:01;9.80;99.90
3344;DHT22;1685;53.104;8.228;2023-04-01T01:43:56;9.70;99.90
3344;DHT22;1685;53.104;8.228;2023-04-01T01:46:26;9.80;99.90
3344;DHT22;1685;53.104;8.228;2023-04-01T01:51:22;9.80;99.90
3344;DHT22;1685;53.104;8.228;2023-04-01T01:53:51;9.70;99.90
3344;DHT22;1685;53.104;8.228;2023-04-01T02:01:17;9.70;99.90
3344;DHT22;1685;53.104;8.228;2023-04-01T02:08:44;9.70;99.90
3344;DHT22;1685;53.104;8.228;2023-04-01T02:11:16;9.70;99.90
3344;DHT22;1685;53.104;8.228;2023-04-01T02:13:49;9.70;99.90
3344;DHT22;1685;53.104;8.228;2023-04-01T02:16:21;9.70;99.90
3344;DHT22;1685;53.104;8.228;2023-04-01T02:18:49;9.70;99.90
3344;DHT22;1685;53.104;8.228;2023-04-01T02:21:20;9.70;99.90
3344;DHT22;1685;53.104;8.228;2023-04-01T02:23:49;9.70;99.90
3344;DHT22;1685;53.104;8.228;2023-04-01T02:26:18;9.70;99.90
3344;DHT22;1685;53.104;8.228;2023-04-01T02:28:49;9.60;99.90
3344;DHT22;1685;53.104;8.228;2023-04-01T02:36:13;9.70;99.90
3344;DHT22;1685;53.104;8.228;2023-04-01T02:38:42;9.70;99.90
3344;DHT22;1685;53.104;8.228;2023-04-01T03:00:48;9.60;99.90
3344;DHT22;1685;53.104;8.228;2023-04-01T03:18:00;9.60;99.90
3344;DHT22;1685;53.104;8.228;2023-04-01T03:25:21;9.80;99.90
3344;DHT22;1685;53.104;8.228;2023-04-01T04:00:04;9.80;99.90
3344;DHT22;1685;53.104;8.228;2023-04-01T04:07:27;9.60;99.90
3344;DHT22;1685;53.104;8.228;2023-04-01T04:24:37;9.60;99.90
3344;DHT22;1685;53.104;8.228;2023-04-01T04:41:48;9.50;99.90
3344;DHT22;1685;53.104;8.228;2023-04-01T04:58:59;9.50;99.90
3344;DHT22;1685;53.104;8.228;2023-04-01T05:11:17;9.50;99.90
3344;DHT22;1685;53.104;8.228;2023-04-01T05:16:14;9.50;99.90
3344;DHT22;1685;53.104;8.228;2023-04-01T05:21:10;9.50;99.90
3344;DHT22;1685;53.104;8.228;2023-04-01T05:26:05;9.50;99.90
3344;DHT22;1685;53.104;8.228;2023-04-01T05:30:59;9.50;99.90
3344;DHT22;1685;53.104;8.228;2023-04-01T05:33:28;9.50;99.90
3344;DHT22;1685;53.104;8.228;2023-04-01T05:50:39;9.50;99.90
3344;DHT22;1685;53.104;8.228;2023-04-01T05:55:34;9.50;99.90
3344;DHT22;1685;53.104;8.228;2023-04-01T06:02:58;9.60;99.90
3344;DHT22;1685;53.104;8.228;2023-04-01T06:05:27;9.60;99.90
3344;DHT22;1685;53.104;8.228;2023-04-01T06:07:58;9.60;99.90
3344;DHT22;1685;53.104;8.228;2023-04-01T06:10:38;9.60;99.90
3344;DHT22;1685;53.104;8.228;2023-04-01T06:13:12;9.60;99.90
3344;DHT22;1685;53.104;8.228;2023-04-01T06:15:53;9.80;99.90
3344;DHT22;1685;53.104;8.228;2023-04-01T06:18:45;9.60;99.90
3344;DHT22;1685;53.104;8.228;2023-04-01T06:21:42;9.70;99.90
3344;DHT22;1685;53.104;8.228;2023-04-01T06:24:28;9.70;99.90
3344;DHT22;1685;53.104;8.228;2023-04-01T06:27:01;9.70;99.90
3344;DHT22;1685;53.104;8.228;2023-04-01T06:29:47;9.90;99.90
3344;DHT22;1685;53.104;8.228;2023-04-01T06:32:39;9.70;99.90
3344;DHT22;1685;53.104;8.228;2023-04-01T06:35:19;9.70;99.90
3344;DHT22;1685;53.104;8.228;2023-04-01T06:38:12;9.60;99.90
3344;DHT22;1685;53.104;8.228;2023-04-01T06:41:08;9.90;99.90
3344;DHT22;1685;53.104;8.228;2023-04-01T06:43:47;9.70;99.90
3344;DHT22;1685;53.104;8.228;2023-04-01T06:46:21;9.70;99.90
3344;DHT22;1685;53.104;8.228;2023-04-01T06:49:07;9.70;99.90
3344;DHT22;1685;53.104;8.228;2023-04-01T06:51:45;10.00;99.90
3344;DHT22;1685;53.104;8.228;2023-04-01T06:54:18;9.80;99.90
3344;DHT22;1685;53.104;8.228;2023-04-01T06:56:52;9.80;99.90
3344;DHT22;1685;53.104;8.228;2023-04-01T06:59:22;9.80;99.90
3344;DHT22;1685;53.104;8.228;2023-04-01T07:01:53;9.70;99.90
3344;DHT22;1685;53.104;8.228;2023-04-01T07:04:24;9.80;99.90
3344;DHT22;1685;53.104;8.228;2023-04-01T07:06:54;9.80;99.90
3344;DHT22;1685;53.104;8.228;2023-04-01T07:09:27;9.70;99.90
3344;DHT22;1685;53.104;8.228;2023-04-01T07:12:02;9.70;99.90
3344;DHT22;1685;53.104;8.228;2023-04-01T07:14:32;9.70;99.90
3344;DHT22;1685;53.104;8.228;2023-04-01T07:17:04;9.60;99.90
3344;DHT22;1685;53.104;8.228;2023-04-01T07:19:36;9.70;99.90
3344;DHT22;1685;53.104;8.228;2023-04-01T07:22:16;9.70;99.90
3344;DHT22;1685;53.104;8.228;2023-04-01T07:24:44;9.70;99.90
3344;DHT22;1685;53.104;8.228;2023-04-01T07:27:14;9.70;99.90
3344;DHT22;1685;53.104;8.228;2023-04-01T07:29:41;9.70;99.90
3344;DHT22;1685;53.104;8.228;2023-04-01T07:32:26;10.00;99.90
3344;DHT22;1685;53.104;8.228;2023-04-01T07:35:09;9.90;99.90
3344;DHT22;1685;53.104;8.228;2023-04-01T07:37:45;9.80;99.90
3344;DHT22;1685;53.104;8.228;2023-04-01T07:40:23;9.80;99.90
3344;DHT22;1685;53.104;8.228;2023-04-01T07:43:05;9.80;99.90
3344;DHT22;1685;53.104;8.228;2023-04-01T07:45:39;9.80;99.90
3344;DHT22;1685;53.104;8.228;2023-04-01T07:48:19;9.80;99.90
3344;DHT22;1685;53.104;8.228;2023-04-01T07:50:50;9.90;99.90
3344;DHT22;1685;53.104;8.228;2023-04-01T07:53:25;9.80;99.90
3344;DHT22;1685;53.104;8.228;2023-04-01T07:56:02;9.80;99.90
3344;DHT22;1685;53.104;8.228;2023-04-01T07:58:39;9.80;99.90
3344;DHT22;1685;53.104;8.228;2023-04-01T08:01:16;9.90;99.90
3344;DHT22;1685;53.104;8.228;2023-04-01T08:04:00;9.90;99.90
3344;DHT22;1685;53.104;8.228;2023-04-01T08:06:38;9.90;99.90
3344;DHT22;1685;53.104;8.228;2023-04-01T08:09:10;10.00;99.90
3344;DHT22;1685;53.104;8.228;2023-04-01T08:11:52;10.10;99.90
3344;DHT22;1685;53.104;8.228;2023-04-01T08:14:32;10.10;99.90
3344;DHT22;1685;53.104;8.228;2023-04-01T08:17:05;10.10;99.90
3344;DHT22;1685;53.104;8.228;2023-04-01T08:19:46;10.20;99.90
3344;DHT22;1685;53.104;8.228;2023-04-01T08:22:25;10.20;99.90
3344;DHT22;1685;53.104;8.228;2023-04-01T08:24:55;10.30;99.90
3344;DHT22;1685;53.104;8.228;2023-04-01T08:27:34;10.30;99.90
3344;DHT22;1685;53.104;8.228;2023-04-01T08:30:10;10.40;99.90
3344;DHT22;1685;53.104;8.228;2023-04-01T08:32:44;10.50;99.90
3344;DHT22;1685;53.104;8.228;2023-04-01T08:35:18;10.50;99.90
3344;DHT22;1685;53.104;8.228;2023-04-01T08:37:48;10.50;99.90
3344;DHT22;1685;53.104;8.228;2023-04-01T08:40:35;10.50;99.90
3344;DHT22;1685;53.104;8.228;2023-04-01T08:43:09;10.30;99.90
3344;DHT22;1685;53.104;8.228;2023-04-01T08:46:06;10.30;99.90
3344;DHT22;1685;53.104;8.228;2023-04-01T08:48:52;10.40;99.90
3344;DHT22;1685;53.104;8.228;2023-04-01T08:54:44;10.40;99.90
3344;DHT22;1685;53.104;8.228;2023-04-01T08:57:18;10.40;99.90
3344;DHT22;1685;53.104;8.228;2023-04-01T08:59:57;10.50;99.90
3344;DHT22;1685;53.104;8.228;2023-04-01T09:03:10;10.30;99.90
3344;DHT22;1685;53.104;8.228;2023-04-01T09:06:01;10.60;99.90
3344;DHT22;1685;53.104;8.228;2023-04-01T09:08:45;10.80;99.90
3344;DHT22;1685;53.104;8.228;2023-04-01T09:11:24;10.80;99.90
3344;DHT22;1685;53.104;8.228;2023-04-01T09:14:13;11.00;99.90
3344;DHT22;1685;53.104;8.228;2023-04-01T09:17:00;10.90;99.90
3344;DHT22;1685;53.104;8.228;2023-04-01T09:19:36;10.80;99.90
3344;DHT22;1685;53.104;8.228;2023-04-01T09:22:25;10.90;99.90
3344;DHT22;1685;53.104;8.228;2023-04-01T09:27:55;10.90;99.90
3344;DHT22;1685;53.104;8.228;2023-04-01T09:30:54;11.00;99.90
3344;DHT22;1685;53.104;8.228;2023-04-01T09:34:05;11.30;99.90
3344;DHT22;1685;53.104;8.228;2023-04-01T09:36:44;11.70;99.90
3344;DHT22;1685;53.104;8.228;2023-04-01T09:39:32;11.50;99.90
3344;DHT22;1685;53.104;8.228;2023-04-01T09:42:14;11.40;99.90
3344;DHT22;1685;53.104;8.228;2023-04-01T09:44:46;11.40;99.90
3344;DHT22;1685;53.104;8.228;2023-04-01T09:47:24;11.50;99.90
3344;DHT22;1685;53.104;8.228;2023-04-01T09:50:14;11.40;99.90
3344;DHT22;1685;53.104;8.228;2023-04-01T09:52:49;11.40;99.90
3344;DHT22;1685;53.104;8.228;2023-04-01T09:58:29;11.60;99.90
3344;DHT22;1685;53.104;8.228;2023-04-01T10:01:19;11.60;99.90
3344;DHT22;1685;53.104;8.228;2023-04-01T10:04:35;11.80;99.90
3344;DHT22;1685;53.104;8.228;2023-04-01T10:16:42;11.50;99.90
3344;DHT22;1685;53.104;8.228;2023-04-01T10:19:39;11.50;99.90
3344;DHT22;1685;53.104;8.228;2023-04-01T10:22:22;11.60;99.90
3344;DHT22;1685;53.104;8.228;2023-04-01T10:25:15;11.40;99.90
3344;DHT22;1685;53.104;8.228;2023-04-01T10:28:08;11.30;99.90
3344;DHT22;1685;53.104;8.228;2023-04-01T10:31:07;10.80;99.90
3344;DHT22;1685;53.104;8.228;2023-04-01T10:33:56;10.50;99.90
3344;DHT22;1685;53.104;8.228;2023-04-01T10:36:52;10.50;99.90
3344;DHT22;1685;53.104;8.228;2023-04-01T10:39:46;9.90;99.90
3344;DHT22;1685;53.104;8.228;2023-04-01T10:52:35;9.80;99.90
3344;DHT22;1685;53.104;8.228;2023-04-01T10:55:25;9.80;99.90
3344;DHT22;1685;53.104;8.228;2023-04-01T10:58:13;9.80;99.90
3344;DHT22;1685;53.104;8.228;2023-04-01T11:01:03;9.60;99.90
3344;DHT22;1685;53.104;8.228;2023-04-01T11:04:13;9.90;99.90
3344;DHT22;1685;53.104;8.228;2023-04-01T11:10:21;9.80;99.90
3344;DHT22;1685;53.104;8.228;2023-04-01T11:16:12;9.20;99.90
3344;DHT22;1685;53.104;8.228;2023-04-01T11:19:19;9.40;99.90
3344;DHT22;1685;53.104;8.228;2023-04-01T11:22:19;9.50;99.90
3344;DHT22;1685;53.104;8.228;2023-04-01T11:25:04;9.60;99.90
3344;DHT22;1685;53.104;8.228;2023-04-01T11:27:58;9.40;99.90
3344;DHT22;1685;53.104;8.228;2023-04-01T11:30:41;9.40;99.90
3344;DHT22;1685;53.104;8.228;2023-04-01T11:33:15;9.40;99.90
3344;DHT22;1685;53.104;8.228;2023-04-01T11:35:59;9.50;99.90
3344;DHT22;1685;53.104;8.228;2023-04-01T11:38:35;9.50;99.90
3344;DHT22;1685;53.104;8.228;2023-04-01T11:41:17;9.20;99.90
3344;DHT22;1685;53.104;8.228;2023-04-01T11:43:57;9.20;99.90
3344;DHT22;1685;53.104;8.228;2023-04-01T11:46:36;9.30;99.90
3344;DHT22;1685;53.104;8.228;2023-04-01T11:49:12;9.20;99.90
3344;DHT22;1685;53.104;8.228;2023-04-01T11:51:57;9.20;99.90
3344;DHT22;1685;53.104;8.228;2023-04-01T11:54:39;9.00;99.90
3344;DHT22;1685;53.104;8.228;2023-04-01T11:57:25;9.00;99.90
3344;DHT22;1685;53.104;8.228;2023-04-01T12:00:20;8.90;99.90
3344;DHT22;1685;53.104;8.228;2023-04-01T12:03:00;8.90;99.90
3344;DHT22;1685;53.104;8.228;2023-04-01T12:05:42;8.90;99.90
3344;DHT22;1685;53.104;8.228;2023-04-01T12:08:20;8.90;99.90
3344;DHT22;1685;53.104;8.228;2023-04-01T12:10:56;8.90;99.90
3344;DHT22;1685;53.104;8.228;2023-04-01T12:13:32;8.90;99.90
3344;DHT22;1685;53.104;8.228;2023-04-01T12:16:19;8.60;99.90
3344;DHT22;1685;53.104;8.228;2023-04-01T12:18:53;8.70;99.90
3344;DHT22;1685;53.104;8.228;2023-04-01T12:21:25;8.50;99.90
3344;DHT22;1685;53.104;8.228;2023-04-01T12:24:05;8.60;99.90
3344;DHT22;1685;53.104;8.228;2023-04-01T12:26:52;8.00;99.90
3344;DHT22;1685;53.104;8.228;2023-04-01T12:32:26;8.60;99.90
3344;DHT22;1685;53.104;8.228;2023-04-01T12:35:16;8.70;99.90
3344;DHT22;1685;53.104;8.228;2023-04-01T12:37:50;8.60;99.90
3344;DHT22;1685;53.104;8.228;2023-04-01T12:40:38;8.70;99.90
3344;DHT22;1685;53.104;8.228;2023-04-01T12:43:27;8.70;99.90
3344;DHT22;1685;53.104;8.228;2023-04-01T12:46:03;8.80;99.90
3344;DHT22;1685;53.104;8.228;2023-04-01T13:02:57;8.60;99.90
3344;DHT22;1685;53.104;8.228;2023-04-01T13:08:34;8.50;99.90
3344;DHT22;1685;53.104;8.228;2023-04-01T13:11:19;8.50;99.90
3344;DHT22;1685;53.104;8.228;2023-04-01T13:16:29;8.50;99.90
3344;DHT22;1685;53.104;8.228;2023-04-01T13:19:01;8.30;99.90
3344;DHT22;1685;53.104;8.228;2023-04-01T13:21:40;8.40;99.90
3344;DHT22;1685;53.104;8.228;2023-04-01T13:24:16;8.40;99.90
3344;DHT22;1685;53.104;8.228;2023-04-01T13:26:54;8.40;99.90
3344;DHT22;1685;53.104;8.228;2023-04-01T13:29:28;8.40;99.90
3344;DHT22;1685;53.104;8.228;2023-04-01T13:32:10;8.40;99.90
3344;DHT22;1685;53.104;8.228;2023-04-01T13:34:52;8.40;99.90
3344;DHT22;1685;53.104;8.228;2023-04-01T13:37:29;8.40;99.90
3344;DHT22;1685;53.104;8.228;2023-04-01T13:40:18;8.40;99.90
3344;DHT22;1685;53.104;8.228;2023-04-01T13:42:51;8.40;99.90
3344;DHT22;1685;53.104;8.228;2023-04-01T13:45:23;8.20;99.90
3344;DHT22;1685;53.104;8.228;2023-04-01T13:48:08;8.30;99.90
3344;DHT22;1685;53.104;8.228;2023-04-01T13:54:05;8.40;99.90
3344;DHT22;1685;53.104;8.228;2023-04-01T13:56:40;8.40;99.90
3344;DHT22;1685;53.104;8.228;2023-04-01T13:59:31;8.40;99.90
3344;DHT22;1685;53.104;8.228;2023-04-01T14:02:20;8.40;99.90
3344;DHT22;1685;53.104;8.228;2023-04-01T14:05:03;8.40;99.90
3344;DHT22;1685;53.104;8.228;2023-04-01T14:07:48;8.30;99.90
3344;DHT22;1685;53.104;8.228;2023-04-01T14:10:20;8.20;99.90
3344;DHT22;1685;53.104;8.228;2023-04-01T14:12:57;8.20;99.90
3344;DHT22;1685;53.104;8.228;2023-04-01T14:15:53;8.10;99.90
3344;DHT22;1685;53.104;8.228;2023-04-01T14:21:28;8.10;99.90
3344;DHT22;1685;53.104;8.228;2023-04-01T14:27:19;7.90;99.90
3344;DHT22;1685;53.104;8.228;2023-04-01T14:32:34;8.00;99.90
3344;DHT22;1685;53.104;8.228;2023-04-01T14:35:22;8.00;99.90
3344;DHT22;1685;53.104;8.228;2023-04-01T14:38:15;7.80;99.90
3344;DHT22;1685;53.104;8.228;2023-04-01T14:40:52;7.80;99.90
3344;DHT22;1685;53.104;8.228;2023-04-01T14:46:08;7.90;99.90
3344;DHT22;1685;53.104;8.228;2023-04-01T14:51:16;7.60;99.90
3344;DHT22;1685;53.104;8.228;2023-04-01T14:53:49;7.80;99.90
3344;DHT22;1685;53.104;8.228;2023-04-01T14:56:35;7.90;99.90
3344;DHT22;1685;53.104;8.228;2023-04-01T15:01:39;7.80;99.90
3344;DHT22;1685;53.104;8.228;2023-04-01T15:04:29;7.80;99.90
3344;DHT22;1685;53.104;8.228;2023-04-01T15:07:11;7.70;99.90
3344;DHT22;1685;53.104;8.228;2023-04-01T15:09:49;7.60;99.90
3344;DHT22;1685;53.104;8.228;2023-04-01T15:12:28;7.60;99.90
3344;DHT22;1685;53.104;8.228;2023-04-01T15:15:17;7.70;99.90
3344;DHT22;1685;53.104;8.228;2023-04-01T15:20:41;7.60;99.90
3344;DHT22;1685;53.104;8.228;2023-04-01T15:23:29;7.50;99.90
3344;DHT22;1685;53.104;8.228;2023-04-01T15:26:13;7.50;99.90
3344;DHT22;1685;53.104;8.228;2023-04-01T15:28:50;7.40;99.90
3344;DHT22;1685;53.104;8.228;2023-04-01T15:31:25;7.40;99.90
3344;DHT22;1685;53.104;8.228;2023-04-01T15:36:34;7.40;99.90
3344;DHT22;1685;53.104;8.228;2023-04-01T15:44:34;7.50;99.90
3344;DHT22;1685;53.104;8.228;2023-04-01T15:47:26;7.40;99.90
3344;DHT22;1685;53.104;8.228;2023-04-01T15:49:57;7.30;99.90
3344;DHT22;1685;53.104;8.228;2023-04-01T15:52:36;7.20;99.90
3344;DHT22;1685;53.104;8.228;2023-04-01T15:55:20;7.20;99.90
3344;DHT22;1685;53.104;8.228;2023-04-01T15:57:57;7.10;99.90
3344;DHT22;1685;53.104;8.228;2023-04-01T16:00:30;7.00;99.90
3344;DHT22;1685;53.104;8.228;2023-04-01T16:03:19;7.10;99.90
3344;DHT22;1685;53.104;8.228;2023-04-01T16:05:57;7.10;99.90
3344;DHT22;1685;53.104;8.228;2023-04-01T16:08:49;7.00;99.90
3344;DHT22;1685;53.104;8.228;2023-04-01T16:11:27;7.00;99.90
3344;DHT22;1685;53.104;8.228;2023-04-01T16:14:02;6.90;99.90
3344;DHT22;1685;53.104;8.228;2023-04-01T16:16:44;6.80;99.90
3344;DHT22;1685;53.104;8.228;2023-04-01T16:19:29;6.90;99.90
3344;DHT22;1685;53.104;8.228;2023-04-01T16:24:33;6.90;99.90
3344;DHT22;1685;53.104;8.228;2023-04-01T16:27:04;6.80;99.90
3344;DHT22;1685;53.104;8.228;2023-04-01T16:29:38;7.00;99.90
3344;DHT22;1685;53.104;8.228;2023-04-01T16:34:58;6.70;99.90
3344;DHT22;1685;53.104;8.228;2023-04-01T16:37:32;6.70;99.90
3344;DHT22;1685;53.104;8.228;2023-04-01T16:47:48;6.80;99.90
3344;DHT22;1685;53.104;8.228;2023-04-01T16:50:19;6.80;99.90
3344;DHT22;1685;53.104;8.228;2023-04-01T16:52:57;6.80;99.90
3344;DHT22;1685;53.104;8.228;2023-04-01T16:55:35;6.80;99.90
3344;DHT22;1685;53.104;8.228;2023-04-01T16:58:03;6.80;99.90
3344;DHT22;1685;53.104;8.228;2023-04-01T17:00:37;7.30;99.90
3344;DHT22;1685;53.104;8.228;2023-04-01T17:03:12;6.70;99.90
3344;DHT22;1685;53.104;8.228;2023-04-01T17:06:02;6.70;99.90
3344;DHT22;1685;53.104;8.228;2023-04-01T17:08:43;6.50;99.90
3344;DHT22;1685;53.104;8.228;2023-04-01T17:11:18;6.70;99.90
3344;DHT22;1685;53.104;8.228;2023-04-01T17:13:53;6.40;99.90
3344;DHT22;1685;53.104;8.228;2023-04-01T17:16:52;6.50;99.90
3344;DHT22;1685;53.104;8.228;2023-04-01T17:19:31;6.50;99.90
3344;DHT22;1685;53.104;8.228;2023-04-01T17:22:06;6.60;99.90
3344;DHT22;1685;53.104;8.228;2023-04-01T17:24:52;6.70;99.90
3344;DHT22;1685;53.104;8.228;2023-04-01T17:27:30;6.30;99.90
3344;DHT22;1685;53.104;8.228;2023-04-01T17:30:13;6.40;99.90
3344;DHT22;1685;53.104;8.228;2023-04-01T17:32:52;6.40;99.90
3344;DHT22;1685;53.104;8.228;2023-04-01T17:35:26;6.30;99.90
3344;DHT22;1685;53.104;8.228;2023-04-01T17:38:03;6.50;99.90
3344;DHT22;1685;53.104;8.228;2023-04-01T17:40:44;6.50;99.90
3344;DHT22;1685;53.104;8.228;2023-04-01T17:43:20;6.40;99.90
3344;DHT22;1685;53.104;8.228;2023-04-01T17:45:53;6.30;99.90
3344;DHT22;1685;53.104;8.228;2023-04-01T17:48:38;6.20;99.90
3344;DHT22;1685;53.104;8.228;2023-04-01T17:51:23;6.20;99.90
3344;DHT22;1685;53.104;8.228;2023-04-01T17:53:59;6.30;99.90
3344;DHT22;1685;53.104;8.228;2023-04-01T17:56:37;6.30;99.90
3344;DHT22;1685;53.104;8.228;2023-04-01T17:59:16;6.30;99.90
3344;DHT22;1685;53.104;8.228;2023-04-01T18:01:52;6.20;99.90
3344;DHT22;1685;53.104;8.228;2023-04-01T18:04:40;6.20;99.90
3344;DHT22;1685;53.104;8.228;2023-04-01T18:07:44;6.10;99.90
3344;DHT22;1685;53.104;8.228;2023-04-01T18:10:22;6.20;99.90
3344;DHT22;1685;53.104;8.228;2023-04-01T18:13:07;6.10;99.90
3344;DHT22;1685;53.104;8.228;2023-04-01T18:15:44;6.00;99.90
3344;DHT22;1685;53.104;8.228;2023-04-01T18:18:35;6.00;99.90
3344;DHT22;1685;53.104;8.228;2023-04-01T18:21:08;6.00;99.90
3344;DHT22;1685;53.104;8.228;2023-04-01T18:23:43;6.00;99.90
3344;DHT22;1685;53.104;8.228;2023-04-01T18:26:18;5.90;99.90
3344;DHT22;1685;53.104;8.228;2023-04-01T18:28:51;6.00;99.90
3344;DHT22;1685;53.104;8.228;2023-04-01T18:31:21;6.00;99.90
3344;DHT22;1685;53.104;8.228;2023-04-01T18:33:57;6.00;99.90
3344;DHT22;1685;53.104;8.228;2023-04-01T18:36:38;5.70;99.90
3344;DHT22;1685;53.104;8.228;2023-04-01T18:39:11;5.90;99.90
3344;DHT22;1685;53.104;8.228;2023-04-01T18:41:49;5.80;99.90
3344;DHT22;1685;53.104;8.228;2023-04-01T18:44:29;5.90;99.90
3344;DHT22;1685;53.104;8.228;2023-04-01T18:47:03;5.80;99.90
3344;DHT22;1685;53.104;8.228;2023-04-01T18:49:43;5.80;99.90
3344;DHT22;1685;53.104;8.228;2023-04-01T18:52:17;5.80;99.90
3344;DHT22;1685;53.104;8.228;2023-04-01T18:54:52;5.80;99.90
3344;DHT22;1685;53.104;8.228;2023-04-01T18:57:20;5.80;99.90
3344;DHT22;1685;53.104;8.228;2023-04-01T18:59:50;5.80;99.90
3344;DHT22;1685;53.104;8.228;2023-04-01T19:02:25;5.80;99.90
3344;DHT22;1685;53.104;8.228;2023-04-01T19:05:02;5.80;99.90
3344;DHT22;1685;53.104;8.228;2023-04-01T19:07:45;5.80;99.90
3344;DHT22;1685;53.104;8.228;2023-04-01T19:10:15;5.80;99.90
3344;DHT22;1685;53.104;8.228;2023-04-01T19:12:49;5.80;99.90
3344;DHT22;1685;53.104;8.228;2023-04-01T19:15:30;6.00;99.90
3344;DHT22;1685;53.104;8.228;2023-04-01T19:18:28;5.90;99.90
3344;DHT22;1685;53.104;8.228;2023-04-01T19:21:07;5.80;99.90
3344;DHT22;1685;53.104;8.228;2023-04-01T19:26:46;5.70;99.90
3344;DHT22;1685;53.104;8.228;2023-04-01T19:29:26;5.80;99.90
3344;DHT22;1685;53.104;8.228;2023-04-01T19:32:04;5.60;99.90
3344;DHT22;1685;53.104;8.228;2023-04-01T19:34:42;5.60;99.90
3344;DHT22;1685;53.104;8.228;2023-04-01T19:37:27;5.60;99.90
3344;DHT22;1685;53.104;8.228;2023-04-01T19:40:08;5.50;99.90
3344;DHT22;1685;53.104;8.228;2023-04-01T19:42:49;5.60;99.90
3344;DHT22;1685;53.104;8.228;2023-04-01T19:45:29;5.50;99.90
3344;DHT22;1685;53.104;8.228;2023-04-01T19:48:09;5.30;99.90
3344;DHT22;1685;53.104;8.228;2023-04-01T19:50:44;5.50;99.90
3344;DHT22;1685;53.104;8.228;2023-04-01T19:53:19;5.50;99.90
3344;DHT22;1685;53.104;8.228;2023-04-01T19:58:26;5.60;99.90
3344;DHT22;1685;53.104;8.228;2023-04-01T20:00:57;5.50;99.90
3344;DHT22;1685;53.104;8.228;2023-04-01T20:03:34;5.40;99.90
3344;DHT22;1685;53.104;8.228;2023-04-01T20:06:15;5.40;99.90
3344;DHT22;1685;53.104;8.228;2023-04-01T20:11:28;5.30;99.90
3344;DHT22;1685;53.104;8.228;2023-04-01T20:16:53;5.30;99.90
3344;DHT22;1685;53.104;8.228;2023-04-01T20:19:28;5.30;99.90
3344;DHT22;1685;53.104;8.228;2023-04-01T20:21:58;5.30;99.90
3344;DHT22;1685;53.104;8.228;2023-04-01T20:24:31;5.30;99.90
3344;DHT22;1685;53.104;8.228;2023-04-01T20:29:37;5.30;99.90
3344;DHT22;1685;53.104;8.228;2023-04-01T20:32:14;5.30;99.90
3344;DHT22;1685;53.104;8.228;2023-04-01T20:34:55;5.20;99.90
3344;DHT22;1685;53.104;8.228;2023-04-01T20:37:42;5.20;99.90
3344;DHT22;1685;53.104;8.228;2023-04-01T20:40:34;5.20;99.90
3344;DHT22;1685;53.104;8.228;2023-04-01T20:43:35;5.80;99.90
3344;DHT22;1685;53.104;8.228;2023-04-01T20:46:15;5.20;99.90
3344;DHT22;1685;53.104;8.228;2023-04-01T20:49:07;5.20;99.90
3344;DHT22;1685;53.104;8.228;2023-04-01T20:51:39;5.20;99.90
3344;DHT22;1685;53.104;8.228;2023-04-01T20:54:24;5.20;99.90
3344;DHT22;1685;53.104;8.228;2023-04-01T20:57:04;5.20;99.90
3344;DHT22;1685;53.104;8.228;2023-04-01T20:59:43;5.20;99.90
3344;DHT22;1685;53.104;8.228;2023-04-01T21:02:30;5.20;99.90
3344;DHT22;1685;53.104;8.228;2023-04-01T21:08:14;5.10;99.90
3344;DHT22;1685;53.104;8.228;2023-04-01T21:10:47;5.10;99.90
3344;DHT22;1685;53.104;8.228;2023-04-01T21:13:29;5.10;99.90
3344;DHT22;1685;53.104;8.228;2023-04-01T21:16:08;5.10;99.90
3344;DHT22;1685;53.104;8.228;2023-04-01T21:21:39;5.10;99.90
3344;DHT22;1685;53.104;8.228;2023-04-01T21:24:34;5.00;99.90
3344;DHT22;1685;53.104;8.228;2023-04-01T21:29:43;5.00;99.90
3344;DHT22;1685;53.104;8.228;2023-04-01T21:32:32;4.90;99.90
3344;DHT22;1685;53.104;8.228;2023-04-01T21:43:01;4.80;99.90
3344;DHT22;1685;53.104;8.228;2023-04-01T21:54:21;4.70;99.90
3344;DHT22;1685;53.104;8.228;2023-04-01T21:57:33;4.70;99.90
3344;DHT22;1685;53.104;8.228;2023-04-01T22:00:17;4.80;99.90
3344;DHT22;1685;53.104;8.228;2023-04-01T22:03:10;4.70;99.90
3344;DHT22;1685;53.104;8.228;2023-04-01T22:05:43;4.70;99.90
3344;DHT22;1685;53.104;8.228;2023-04-01T22:10:57;4.60;99.90
3344;DHT22;1685;53.104;8.228;2023-04-01T22:13:31;4.60;99.90
3344;DHT22;1685;53.104;8.228;2023-04-01T22:16:08;4.40;99.90
3344;DHT22;1685;53.104;8.228;2023-04-01T22:18:45;4.40;99.90
3344;DHT22;1685;53.104;8.228;2023-04-01T22:21:19;4.40;99.90
3344;DHT22;1685;53.104;8.228;2023-04-01T22:23:53;4.30;99.90
3344;DHT22;1685;53.104;8.228;2023-04-01T22:26:27;4.20;99.90
3344;DHT22;1685;53.104;8.228;2023-04-01T22:28:59;4.10;99.90
3344;DHT22;1685;53.104;8.228;2023-04-01T22:31:36;4.00;99.90
3344;DHT22;1685;53.104;8.228;2023-04-01T22:34:12;4.10;99.90
3344;DHT22;1685;53.104;8.228;2023-04-01T22:36:48;3.90;99.90
3344;DHT22;1685;53.104;8.228;2023-04-01T22:39:35;3.80;99.90
3344;DHT22;1685;53.104;8.228;2023-04-01T22:44:50;3.70;99.90
3344;DHT22;1685;53.104;8.228;2023-04-01T22:47:24;3.70;99.90
3344;DHT22;1685;53.104;8.228;2023-04-01T22:49:59;3.60;99.90
3344;DHT22;1685;53.104;8.228;2023-04-01T22:52:31;3.60;99.90
3344;DHT22;1685;53.104;8.228;2023-04-01T22:55:03;3.60;99.90
3344;DHT22;1685;53.104;8.228;2023-04-01T22:57:41;3.50;99.90
3344;DHT22;1685;53.104;8.228;2023-04-01T23:00:13;3.50;99.90
3344;DHT22;1685;53.104;8.228;2023-04-01T23:05:14;3.50;99.90
3344;DHT22;1685;53.104;8.228;2023-04-01T23:07:45;3.30;99.90
3344;DHT22;1685;53.104;8.228;2023-04-01T23:10:20;3.30;99.90
3344;DHT22;1685;53.104;8.228;2023-04-01T23:12:51;3.10;99.90
3344;DHT22;1685;53.104;8.228;2023-04-01T23:15:19;3.20;99.90
3344;DHT22;1685;53.104;8.228;2023-04-01T23:18:03;3.20;99.90
3344;DHT22;1685;53.104;8.228;2023-04-01T23:21:00;3.00;99.90
3344;DHT22;1685;53.104;8.228;2023-04-01T23:23:36;2.90;99.90
3344;DHT22;1685;53.104;8.228;2023-04-01T23:26:08;3.00;99.90
3344;DHT22;1685;53.104;8.228;2023-04-01T23:28:43;3.10;99.90
3344;DHT22;1685;53.104;8.228;2023-04-01T23:31:35;2.90;99.90
3344;DHT22;1685;53.104;8.228;2023-04-01T23:34:17;2.90;99.90
3344;DHT22;1685;53.104;8.228;2023-04-01T23:36:49;2.90;99.90
3344;DHT22;1685;53.104;8.228;2023-04-01T23:39:22;3.00;99.90
3344;DHT22;1685;53.104;8.228;2023-04-01T23:41:51;2.90;99.90
3344;DHT22;1685;53.104;8.228;2023-04-01T23:44:19;2.80;99.90
3344;DHT22;1685;53.104;8.228;2023-04-01T23:46:47;2.80;99.90
3344;DHT22;1685;53.104;8.228;2023-04-01T23:49:18;2.90;99.90
3344;DHT22;1685;53.104;8.228;2023-04-01T23:51:53;2.80;99.90
3344;DHT22;1685;53.104;8.228;2023-04-01T23:54:29;2.70;99.90
3344;DHT22;1685;53.104;8.228;2023-04-01T23:56:59;2.70;99.90
3344;DHT22;1685;53.104;8.228;2023-04-01T23:59:34;2.70;99.90
